Aérodrome :
LOGIN :

S'inscrire | Disclaimer

   EN    FR    IT 

 










Légende :    VFR   VFR Marginal   IFR   IFR Intensif   IFR Très Intensif
Visi : 
Plafond : 
>= 8 km
>= 3000ft
5 à 8 km
1000 à 3000 ft
1500m à 5 km
500 à 1000 ft
800 à 1500m
200 à 500 ft
< 800m
< 200 ft
Symboles :   Orages  Brouillard  Fortes neiges  Fortes précipitations  Vent > 20 kt
SIGMETs :   Divers  Orages  Givrage  Turbulence  Onde Orograph.  Cendres Volcan.







- Altitude de l'aérodrome : 90 ft
- Code IATA : NTE
- Voir les cartes d'approche


LFRS - Nantes

DERNIER METAR :
  • 201730Z AUTO 24003KT CAVOK 03/01 Q1004 NOSIG

METARs EXPIRÉS :
  • 201700Z AUTO 24002KT CAVOK 03/01 Q1003 NOSIG
  • 201630Z AUTO 00000KT 9999 FEW035 OVC054 04/01 Q1003 NOSIG
  • 201600Z AUTO VRB01KT 9999 FEW030 OVC052 04/00 Q1003 NOSIG
  • 201530Z AUTO VRB02KT 9999 FEW031 SCT042 BKN050 04/00 Q1003 NOSIG
  • 201500Z AUTO 33003KT 9999 OVC048 04/00 Q1002 NOSIG

TAF AMD TAF LFRS
Valide du 20 à 18h jusqu'au 22 à 00h UTC


201720Z 2018/2124 VRB03KT 9999 SCT035
BECMG 2100/2103 15010KT
PROB30
TEMPO 2100/2108 3000 BR OVC003
BECMG 2115/2118 08010KT CAVOK
ATIS : +33 2 40 05 12 74
Pas de NOTAMs connus pour ce terrain.



MET'MAP, la Météo Aéronautique d'un coup d'oeil ! - Copyright ORBIFLY Décembre 2007 - Disclaimer

ORBIFLY MET'MAP TEAM :

Programmation & Développement : Alexandra Zaïnal
Conception & Développement : Baudouin d'Aumeries
Co-Programmation & Développement : Marc-Olivier Méhu
Soutien technique & logistique : Manuel Goepfert

Contact : metmap@orbifly.com




SOURCES & CREDITS :

   NOAA